Time;durP1;ratioP1;P1;durP2;ratioP2;P2;SDS_P1;SDS_P2;PMS_P1;PMS_P2;Temp;Humidity;BMP_temperature;BMP_pressure;BME280_temperature;BME280_humidity;BME280_pressure;Samples;Min_cycle;Max_cycle;Signal;HPM_P1;HPM_P2
2022/01/31 00:02:08;;;;;;;11.93;8.23;;;3.70;50.50;;;;;;20552;6905;118241;-83
2022/01/31 00:04:34;;;;;;;14.87;8.10;;;3.60;50.70;;;;;;20572;6905;116673;-82
2022/01/31 00:07:02;;;;;;;11.35;8.20;;;3.50;50.80;;;;;;20510;6905;126449;-83
2022/01/31 00:09:27;;;;;;;14.27;9.40;;;3.30;51.00;;;;;;20341;6905;280064;-83
2022/01/31 00:12:07;;;;;;;13.55;8.23;;;3.60;51.70;;;;;;20560;6905;119722;-83
2022/01/31 00:14:31;;;;;;;13.98;9.50;;;3.60;51.30;;;;;;20267;6905;280546;-82
2022/01/31 00:16:45;;;;;;;14.68;8.73;;;3.80;51.30;;;;;;20516;6905;117357;-83
2022/01/31 00:19:10;;;;;;;15.73;9.05;;;3.80;50.90;;;;;;20342;6905;280588;-82
2022/01/31 00:21:36;;;;;;;11.73;7.65;;;3.90;51.10;;;;;;20563;6905;123821;-82
2022/01/31 00:24:01;;;;;;;8.77;6.73;;;3.90;50.90;;;;;;20564;6905;119212;-82
2022/01/31 00:26:27;;;;;;;13.85;8.27;;;3.70;51.10;;;;;;20364;6905;279844;-83
2022/01/31 00:28:52;;;;;;;16.23;8.45;;;3.80;52.00;;;;;;20338;6905;310395;-82
2022/01/31 00:31:18;;;;;;;8.20;6.67;;;4.20;52.00;;;;;;20573;6905;117884;-83
2022/01/31 00:33:44;;;;;;;10.83;7.57;;;4.20;51.60;;;;;;20363;6905;280185;-83
2022/01/31 00:36:09;;;;;;;13.40;8.07;;;4.40;51.70;;;;;;20358;6905;282608;-83
2022/01/31 00:38:35;;;;;;;9.67;7.03;;;4.70;51.60;;;;;;20303;6905;309173;-83
2022/01/31 00:41:00;;;;;;;13.27;7.40;;;5.00;51.00;;;;;;20292;6905;328908;-83
2022/01/31 00:43:26;;;;;;;10.87;6.77;;;5.20;50.40;;;;;;20553;6905;117621;-83
2022/01/31 00:45:59;;;;;;;14.20;8.00;;;5.10;50.20;;;;;;20356;6905;309916;-83
2022/01/31 00:48:24;;;;;;;10.17;6.53;;;5.10;50.30;;;;;;20525;6905;119163;-83
2022/01/31 00:50:47;;;;;;;10.60;7.40;;;5.00;50.40;;;;;;20330;6905;309409;-83
2022/01/31 00:53:13;;;;;;;13.17;6.50;;;5.00;50.50;;;;;;20540;6905;118125;-83
2022/01/31 00:55:39;;;;;;;11.30;6.37;;;4.90;50.30;;;;;;20559;6904;116740;-83
2022/01/31 00:58:05;;;;;;;13.55;5.85;;;4.70;50.60;;;;;;20560;6905;117120;-83
2022/01/31 01:00:31;;;;;;;7.20;5.60;;;4.40;50.80;;;;;;20575;6905;117584;-83
2022/01/31 01:02:57;;;;;;;13.97;7.50;;;4.30;51.30;;;;;;20358;6905;280165;-83
2022/01/31 01:05:24;;;;;;;11.02;6.70;;;4.80;51.80;;;;;;20361;6905;280646;-83
2022/01/31 01:07:50;;;;;;;12.37;6.60;;;4.80;51.00;;;;;;20579;6905;117937;-85
2022/01/31 01:10:18;;;;;;;10.50;6.03;;;4.80;50.80;;;;;;20566;6905;119904;-83
2022/01/31 01:12:43;;;;;;;11.40;7.70;;;4.60;51.00;;;;;;20357;6905;309312;-83
2022/01/31 01:15:09;;;;;;;11.55;8.20;;;5.00;50.50;;;;;;20347;6905;348867;-83
2022/01/31 01:17:35;;;;;;;12.00;8.07;;;5.00;50.40;;;;;;20570;6905;118414;-83
2022/01/31 01:20:01;;;;;;;11.87;7.60;;;4.60;50.20;;;;;;20582;6905;117001;-83
2022/01/31 01:22:27;;;;;;;11.27;7.17;;;4.60;50.20;;;;;;20578;6905;118388;-84
2022/01/31 01:24:52;;;;;;;8.93;6.73;;;4.40;50.60;;;;;;20553;6905;118959;-83
2022/01/31 01:27:23;;;;;;;8.53;5.83;;;4.20;50.90;;;;;;20581;6905;117273;-83
2022/01/31 01:29:47;;;;;;;12.00;7.10;;;4.00;51.20;;;;;;20565;6905;118417;-83
2022/01/31 01:32:12;;;;;;;7.93;5.87;;;3.90;51.40;;;;;;20574;6905;116825;-84
2022/01/31 01:34:38;;;;;;;9.67;7.10;;;3.70;51.50;;;;;;20363;6905;308205;-83
2022/01/31 01:37:04;;;;;;;9.68;6.87;;;3.90;51.40;;;;;;20561;6905;118510;-83
2022/01/31 01:39:29;;;;;;;11.60;7.47;;;4.00;50.70;;;;;;20578;6905;117707;-84
2022/01/31 01:41:55;;;;;;;10.97;6.60;;;3.80;51.10;;;;;;20573;6905;118785;-83
2022/01/31 01:44:20;;;;;;;11.07;8.27;;;3.70;51.40;;;;;;20376;6905;289354;-84
2022/01/31 01:46:46;;;;;;;16.50;8.80;;;3.90;51.60;;;;;;20183;6905;280501;-84
2022/01/31 01:49:12;;;;;;;16.50;8.37;;;4.20;50.50;;;;;;20549;6905;118826;-83
2022/01/31 01:51:39;;;;;;;12.70;8.50;;;4.20;50.50;;;;;;20364;6905;339924;-84
2022/01/31 01:54:06;;;;;;;13.73;8.00;;;4.30;50.30;;;;;;20580;6905;118692;-84
2022/01/31 01:56:32;;;;;;;13.30;7.27;;;4.30;50.80;;;;;;20579;6905;118539;-83
2022/01/31 01:59:04;;;;;;;14.82;9.25;;;4.10;51.70;;;;;;20343;6905;313282;-84
2022/01/31 02:01:23;;;;;;;16.17;9.18;;;4.20;51.30;;;;;;20339;6905;280922;-84
2022/01/31 02:03:48;;;;;;;14.07;9.88;;;4.40;50.80;;;;;;20339;6905;279555;-83
2022/01/31 02:06:14;;;;;;;14.87;8.17;;;4.70;50.30;;;;;;20585;6905;117973;-84
2022/01/31 02:08:41;;;;;;;10.93;7.70;;;4.60;50.20;;;;;;20573;6904;116530;-83
2022/01/31 02:11:07;;;;;;;12.73;7.43;;;4.40;50.70;;;;;;20542;6905;120867;-84
2022/01/31 02:13:32;;;;;;;16.73;8.47;;;4.10;51.00;;;;;;20560;6905;120764;-84
2022/01/31 02:15:58;;;;;;;13.10;7.77;;;3.90;51.30;;;;;;20558;6905;118954;-83
2022/01/31 02:18:27;;;;;;;14.57;9.48;;;3.80;51.60;;;;;;20358;6905;339428;-83
2022/01/31 02:20:49;;;;;;;13.47;8.23;;;4.00;52.00;;;;;;20557;6905;118038;-83
2022/01/31 02:23:15;;;;;;;17.00;10.50;;;4.00;51.60;;;;;;20323;6913;305752;-83
2022/01/31 02:26:03;;;;;;;19.07;9.70;;;4.20;51.60;;;;;;20506;6927;118546;-83
2022/01/31 02:28:28;;;;;;;11.57;8.03;;;4.10;51.10;;;;;;20579;6905;117481;-83
2022/01/31 02:30:54;;;;;;;14.10;10.27;;;3.90;51.40;;;;;;20315;6916;279604;-83
2022/01/31 02:33:19;;;;;;;12.87;9.80;;;4.00;51.70;;;;;;20335;6913;313852;-84
2022/01/31 02:35:45;;;;;;;13.85;9.98;;;4.30;51.30;;;;;;20321;6916;280652;-83
2022/01/31 02:38:10;;;;;;;14.33;9.10;;;4.60;50.70;;;;;;20521;6913;118303;-84
2022/01/31 02:40:37;;;;;;;14.50;8.95;;;4.60;50.70;;;;;;20344;6913;311127;-84
2022/01/31 02:43:02;;;;;;;15.87;9.90;;;4.60;50.60;;;;;;20322;6913;293808;-84
2022/01/31 02:45:30;;;;;;;15.75;10.02;;;4.90;50.30;;;;;;20337;6913;283555;-84
2022/01/31 02:47:58;;;;;;;12.55;9.23;;;5.10;49.80;;;;;;20337;6913;310356;-84
2022/01/31 02:50:22;;;;;;;8.87;7.60;;;5.20;49.50;;;;;;20555;6913;116745;-84
2022/01/31 02:52:59;;;;;;;11.97;8.57;;;5.00;49.60;;;;;;20359;6913;305797;-83
2022/01/31 02:55:15;;;;;;;12.80;8.85;;;4.90;50.00;;;;;;20317;6913;341137;-83
2022/01/31 02:57:41;;;;;;;13.73;7.93;;;5.10;49.90;;;;;;20552;6913;118200;-83
2022/01/31 03:00:08;;;;;;;11.67;7.33;;;4.90;49.90;;;;;;20556;6913;124020;-83
2022/01/31 03:02:33;;;;;;;10.40;7.03;;;4.70;50.50;;;;;;20552;6913;116499;-83
2022/01/31 03:04:59;;;;;;;12.40;8.80;;;4.40;50.90;;;;;;20337;6913;281325;-83
2022/01/31 03:07:25;;;;;;;11.40;8.60;;;4.80;50.80;;;;;;20351;6913;310934;-85
2022/01/31 03:09:51;;;;;;;12.93;7.40;;;4.80;50.80;;;;;;20561;6913;116587;-83
2022/01/31 03:12:16;;;;;;;8.57;6.97;;;4.70;50.50;;;;;;20559;6913;118973;-83
2022/01/31 03:14:43;;;;;;;15.77;7.50;;;4.50;50.80;;;;;;20563;6913;121320;-84
2022/01/31 03:17:09;;;;;;;15.40;8.65;;;4.30;51.20;;;;;;20332;6913;320154;-85
2022/01/31 03:19:38;;;;;;;10.52;7.15;;;4.40;51.40;;;;;;20554;6911;118765;-83
2022/01/31 03:22:00;;;;;;;12.50;8.17;;;4.40;51.20;;;;;;20334;6912;338794;-83
2022/01/31 03:24:25;;;;;;;14.27;8.82;;;4.50;51.30;;;;;;20367;6912;313235;-83
2022/01/31 03:26:51;;;;;;;10.70;7.75;;;4.70;50.80;;;;;;20350;6912;337042;-83
2022/01/31 03:29:17;;;;;;;10.80;6.83;;;5.00;50.30;;;;;;20591;6912;116864;-82
2022/01/31 03:31:42;;;;;;;12.23;8.32;;;4.80;50.20;;;;;;20373;6913;309375;-83
2022/01/31 03:34:08;;;;;;;14.25;8.80;;;4.80;50.40;;;;;;20380;6913;308049;-83
2022/01/31 03:36:35;;;;;;;13.77;7.47;;;5.00;50.20;;;;;;20589;6913;120857;-84
2022/01/31 03:39:00;;;;;;;9.83;7.57;;;4.80;50.10;;;;;;20353;6912;299255;-83
2022/01/31 03:41:26;;;;;;;13.70;7.03;;;4.80;50.60;;;;;;20543;6913;118959;-83
2022/01/31 03:43:51;;;;;;;11.93;7.77;;;4.70;50.70;;;;;;20319;6913;310519;-83
2022/01/31 03:46:17;;;;;;;11.95;7.65;;;4.70;51.00;;;;;;20318;6913;333927;-83
2022/01/31 03:48:46;;;;;;;13.30;6.80;;;5.00;50.80;;;;;;20522;6913;122217;-83
2022/01/31 03:51:11;;;;;;;7.73;6.17;;;4.90;50.60;;;;;;20499;6913;117878;-83
2022/01/31 03:53:36;;;;;;;8.77;6.70;;;4.60;50.90;;;;;;20515;6913;118644;-83
2022/01/31 03:56:02;;;;;;;10.53;6.83;;;4.40;51.30;;;;;;20515;6913;117800;-83
2022/01/31 03:58:28;;;;;;;11.23;7.18;;;4.40;52.30;;;;;;20285;6913;280841;-83
2022/01/31 04:00:54;;;;;;;10.77;6.53;;;4.40;52.30;;;;;;20498;6913;118992;-83
2022/01/31 04:03:21;;;;;;;9.25;7.12;;;4.40;51.90;;;;;;20279;6913;285817;-83
2022/01/31 04:05:47;;;;;;;11.03;6.40;;;4.60;52.20;;;;;;20489;6913;118643;-83
2022/01/31 04:08:13;;;;;;;9.13;6.63;;;4.60;51.90;;;;;;20304;6913;281201;-83
2022/01/31 04:10:39;;;;;;;10.07;6.30;;;4.80;52.80;;;;;;20311;6913;311626;-84
2022/01/31 04:13:07;;;;;;;11.45;6.55;;;5.10;52.70;;;;;;20325;6913;309937;-83
2022/01/31 04:15:30;;;;;;;8.32;6.47;;;5.30;51.50;;;;;;20324;6913;280399;-83
2022/01/31 04:17:56;;;;;;;11.40;6.30;;;5.70;50.70;;;;;;20340;6913;296718;-83
2022/01/31 04:20:22;;;;;;;10.67;5.47;;;5.70;50.60;;;;;;20554;6913;117641;-84
2022/01/31 04:22:56;;;;;;;7.77;5.37;;;5.20;51.10;;;;;;20558;6913;116859;-83
2022/01/31 04:28:05;;;;;;;9.00;5.90;;;5.30;51.50;;;;;;20344;6913;280304;-84
2022/01/31 04:30:29;;;;;;;9.20;5.83;;;5.50;50.90;;;;;;20333;6911;339758;-83
2022/01/31 04:32:54;;;;;;;8.35;5.25;;;5.80;50.60;;;;;;20531;6912;121580;-83
2022/01/31 04:35:21;;;;;;;9.05;4.78;;;5.40;50.90;;;;;;20551;6912;118042;-83
2022/01/31 04:37:46;;;;;;;7.37;4.60;;;5.40;50.90;;;;;;20560;6912;116406;-83
2022/01/31 04:40:14;;;;;;;10.73;5.70;;;5.20;51.30;;;;;;20346;6912;281380;-84
2022/01/31 04:42:37;;;;;;;5.40;4.60;;;5.30;51.50;;;;;;20538;6913;117151;-83
2022/01/31 04:45:04;;;;;;;8.80;5.50;;;5.30;51.30;;;;;;20306;6913;309962;-83
2022/01/31 04:47:29;;;;;;;7.65;5.20;;;5.40;51.20;;;;;;20338;6913;295186;-84
2022/01/31 04:49:54;;;;;;;9.73;5.53;;;5.70;50.70;;;;;;20342;6913;311033;-84
2022/01/31 04:52:21;;;;;;;7.20;5.30;;;6.10;49.50;;;;;;20339;6913;308917;-84
2022/01/31 04:54:48;;;;;;;8.20;5.20;;;6.10;49.50;;;;;;20339;6913;310304;-83
2022/01/31 04:57:16;;;;;;;9.63;5.30;;;6.20;49.10;;;;;;20313;6913;312276;-83
2022/01/31 04:59:43;;;;;;;7.23;4.47;;;6.40;48.90;;;;;;20532;6913;118560;-83
2022/01/31 05:02:06;;;;;;;8.10;5.40;;;6.20;49.00;;;;;;20314;6913;285446;-85
2022/01/31 05:04:31;;;;;;;7.50;4.87;;;6.10;49.20;;;;;;20287;6913;296769;-84
2022/01/31 05:06:58;;;;;;;8.50;5.30;;;6.20;49.10;;;;;;20259;6913;310487;-85
2022/01/31 05:09:24;;;;;;;6.07;4.43;;;6.40;48.80;;;;;;20508;6913;119647;-84
2022/01/31 05:11:50;;;;;;;7.95;4.78;;;6.10;49.10;;;;;;20297;6913;340148;-84
2022/01/31 05:14:17;;;;;;;8.53;4.50;;;6.10;49.10;;;;;;20515;6913;117537;-84
2022/01/31 05:16:42;;;;;;;4.67;3.77;;;5.60;49.20;;;;;;20512;6913;118036;-84
2022/01/31 05:19:09;;;;;;;8.93;3.90;;;5.60;49.70;;;;;;20492;6913;120542;-84
2022/01/31 05:21:34;;;;;;;6.03;3.43;;;5.40;50.10;;;;;;20510;6913;118000;-85
2022/01/31 05:24:02;;;;;;;7.80;4.15;;;5.20;50.50;;;;;;20305;6913;310392;-87
2022/01/31 05:26:29;;;;;;;5.97;4.20;;;5.30;50.80;;;;;;20310;6913;310717;-86
2022/01/31 05:28:54;;;;;;;6.57;4.27;;;5.60;50.30;;;;;;20290;6913;306532;-87
2022/01/31 05:31:20;;;;;;;4.90;3.63;;;5.90;49.70;;;;;;20514;6913;117666;-86
2022/01/31 05:33:45;;;;;;;9.90;4.55;;;5.80;49.50;;;;;;20298;6913;299520;-86
2022/01/31 05:36:11;;;;;;;7.22;4.25;;;5.80;49.60;;;;;;20290;6913;339758;-86
2022/01/31 05:38:39;;;;;;;6.85;4.22;;;6.00;49.30;;;;;;20308;6913;310415;-85
2022/01/31 05:41:06;;;;;;;6.53;4.07;;;6.20;49.00;;;;;;20193;6913;344232;-87
2022/01/31 05:43:28;;;;;;;7.43;3.83;;;6.30;48.60;;;;;;20249;6911;285183;-85
2022/01/31 05:45:54;;;;;;;7.07;3.83;;;6.50;48.00;;;;;;20307;6912;310430;-86
2022/01/31 05:48:20;;;;;;;6.10;3.80;;;6.50;48.00;;;;;;20468;6912;119231;-86
2022/01/31 05:50:45;;;;;;;6.95;2.95;;;6.30;48.90;;;;;;20510;6912;118422;-85
2022/01/31 05:53:12;;;;;;;4.67;3.40;;;5.90;48.80;;;;;;20484;6912;122612;-86
2022/01/31 05:55:38;;;;;;;7.22;3.85;;;5.70;49.40;;;;;;20296;6913;340511;-86
2022/01/31 05:58:03;;;;;;;4.97;3.17;;;5.80;49.60;;;;;;20307;6913;280272;-81
2022/01/31 06:00:30;;;;;;;7.62;3.50;;;6.30;48.60;;;;;;20305;6913;295134;-85
2022/01/31 06:02:58;;;;;;;7.33;3.30;;;6.30;48.60;;;;;;20500;6913;119618;-86
2022/01/31 06:05:24;;;;;;;6.07;3.30;;;6.20;48.50;;;;;;20301;6913;309964;-86
2022/01/31 06:07:50;;;;;;;8.00;3.10;;;6.20;48.50;;;;;;20512;6913;117760;-86
2022/01/31 06:10:15;;;;;;;5.18;3.08;;;6.10;48.50;;;;;;20299;6913;310902;-84
2022/01/31 06:12:41;;;;;;;7.05;3.30;;;6.20;48.80;;;;;;20307;6913;310884;-85
2022/01/31 06:15:07;;;;;;;6.32;3.42;;;6.50;48.10;;;;;;20308;6913;340577;-86
2022/01/31 06:17:32;;;;;;;5.93;3.30;;;6.50;48.00;;;;;;20306;6913;282050;-83
2022/01/31 06:19:58;;;;;;;5.67;3.13;;;6.70;47.60;;;;;;20308;6913;280915;-83
2022/01/31 06:22:24;;;;;;;5.87;3.10;;;6.90;47.40;;;;;;20302;6913;295181;-83
2022/01/31 06:24:49;;;;;;;5.95;2.45;;;6.90;47.10;;;;;;20513;6913;118672;-85
2022/01/31 06:27:16;;;;;;;4.95;3.03;;;6.70;47.40;;;;;;20173;6913;309721;-84
2022/01/31 06:29:40;;;;;;;6.57;3.23;;;6.60;47.70;;;;;;20303;6913;345207;-85
2022/01/31 06:32:06;;;;;;;5.53;3.20;;;6.80;47.60;;;;;;20303;6913;314706;-84
2022/01/31 06:34:32;;;;;;;5.43;3.20;;;6.90;47.40;;;;;;20300;6913;302658;-84
2022/01/31 06:37:02;;;;;;;8.27;3.08;;;7.00;47.40;;;;;;20497;6913;118214;-84
2022/01/31 06:39:24;;;;;;;6.30;3.28;;;6.80;47.50;;;;;;20299;6913;333336;-82
2022/01/31 06:41:50;;;;;;;5.83;3.27;;;6.80;48.20;;;;;;20312;6913;281457;-83
2022/01/31 06:44:15;;;;;;;6.57;3.40;;;6.90;48.40;;;;;;20289;6913;340472;-83
2022/01/31 06:46:41;;;;;;;5.95;3.30;;;7.00;48.50;;;;;;20299;6913;283109;-85
2022/01/31 06:49:08;;;;;;;5.83;2.90;;;7.10;48.30;;;;;;20285;6913;345739;-82
2022/01/31 06:51:33;;;;;;;5.53;3.57;;;7.20;48.40;;;;;;20311;6913;286528;-82
2022/01/31 06:54:01;;;;;;;6.77;3.40;;;7.30;48.40;;;;;;20330;6910;321478;-81
2022/01/31 06:56:31;;;;;;;6.43;3.33;;;7.30;48.40;;;;;;20309;6912;280671;-82
2022/01/31 06:58:56;;;;;;;7.53;3.40;;;7.40;48.60;;;;;;20310;6912;280207;-81
2022/01/31 07:01:25;;;;;;;6.43;3.53;;;7.40;48.60;;;;;;20483;6912;116883;-83
2022/01/31 07:03:49;;;;;;;8.40;3.08;;;7.10;48.60;;;;;;20523;6912;118003;-81
2022/01/31 07:06:15;;;;;;;4.30;2.63;;;6.30;49.90;;;;;;20528;6913;116337;-81
2022/01/31 07:08:46;;;;;;;3.83;2.57;;;6.30;49.80;;;;;;20523;6913;117911;-82
2022/01/31 07:11:15;;;;;;;8.33;2.80;;;6.00;50.30;;;;;;20492;6913;118112;-81
2022/01/31 07:13:42;;;;;;;4.32;3.10;;;5.80;50.80;;;;;;20523;6913;117676;-81
2022/01/31 07:16:06;;;;;;;5.70;3.13;;;5.70;51.30;;;;;;20531;6913;118151;-81
2022/01/31 07:18:33;;;;;;;6.37;3.23;;;5.50;51.60;;;;;;20551;6913;116723;-81
2022/01/31 07:20:59;;;;;;;4.43;2.93;;;5.40;52.00;;;;;;20541;6913;117455;-80
2022/01/31 07:23:49;;;;;;;3.43;2.43;;;5.20;52.60;;;;;;20551;6913;118056;-80
2022/01/31 07:25:54;;;;;;;6.90;3.90;;;5.20;53.10;;;;;;20256;6913;298998;-81
2022/01/31 07:28:20;;;;;;;5.43;3.80;;;5.50;54.20;;;;;;20307;6913;302664;-80
2022/01/31 07:30:45;;;;;;;4.62;3.30;;;5.90;54.50;;;;;;20539;6913;116700;-81
2022/01/31 07:33:12;;;;;;;6.40;3.50;;;5.90;53.80;;;;;;20508;6913;122632;-81
2022/01/31 07:35:38;;;;;;;4.53;2.87;;;5.60;54.10;;;;;;20549;6913;117975;-81
2022/01/31 07:38:04;;;;;;;3.57;3.07;;;5.60;54.00;;;;;;20521;6913;117446;-80
2022/01/31 07:40:30;;;;;;;5.72;3.20;;;5.50;54.20;;;;;;20529;6913;114385;-83
2022/01/31 07:42:55;;;;;;;7.70;3.53;;;5.40;54.50;;;;;;20507;6913;120145;-81
2022/01/31 07:45:21;;;;;;;6.10;4.37;;;5.30;54.70;;;;;;20303;6913;288623;-80
2022/01/31 07:47:46;;;;;;;3.97;3.10;;;5.50;56.30;;;;;;20529;6913;117888;-84
2022/01/31 07:50:13;;;;;;;4.27;3.70;;;5.50;55.70;;;;;;20521;6913;117964;-81
2022/01/31 07:52:38;;;;;;;6.97;4.23;;;5.50;55.70;;;;;;20303;6913;311206;-82
2022/01/31 07:55:05;;;;;;;3.62;3.30;;;5.70;56.70;;;;;;20515;6913;117936;-81
2022/01/31 07:57:30;;;;;;;3.57;3.33;;;5.80;56.20;;;;;;20525;6913;118793;-83
2022/01/31 07:59:57;;;;;;;5.47;4.22;;;5.70;56.20;;;;;;20311;6913;313753;-82
2022/01/31 08:02:24;;;;;;;2.87;2.53;;;5.80;57.20;;;;;;20524;6913;118405;-82
2022/01/31 08:04:54;;;;;;;4.30;3.90;;;5.80;56.50;;;;;;20501;6913;147777;-84
2022/01/31 08:07:16;;;;;;;4.90;4.40;;;5.70;56.50;;;;;;20302;6911;309871;-82
2022/01/31 08:09:41;;;;;;;3.67;3.08;;;5.80;57.50;;;;;;20531;6912;119543;-82
2022/01/31 08:12:07;;;;;;;4.83;3.30;;;5.90;56.90;;;;;;20573;6912;122075;-82
2022/01/31 08:14:32;;;;;;;3.20;2.90;;;5.70;56.70;;;;;;20561;6912;117346;-82
2022/01/31 08:16:58;;;;;;;6.37;3.40;;;5.60;56.90;;;;;;20530;6913;120492;-83
2022/01/31 08:19:23;;;;;;;2.97;2.70;;;5.50;57.00;;;;;;20526;6913;117759;-83
2022/01/31 08:21:49;;;;;;;6.28;4.22;;;5.30;57.10;;;;;;20321;6913;291009;-84
2022/01/31 08:24:15;;;;;;;4.62;4.20;;;5.90;59.00;;;;;;20319;6913;312552;-83
2022/01/31 08:26:43;;;;;;;4.10;2.60;;;5.90;58.30;;;;;;20499;6913;117423;-84
2022/01/31 08:29:20;;;;;;;6.87;3.50;;;5.90;57.20;;;;;;20476;6913;147861;-83
2022/01/31 08:31:36;;;;;;;4.55;4.07;;;5.70;57.10;;;;;;20272;6913;312575;-83
2022/01/31 08:36:34;;;;;;;4.05;3.67;;;5.80;57.40;;;;;;20304;6913;340021;-82
2022/01/31 08:38:58;;;;;;;4.30;3.65;;;5.90;57.90;;;;;;20277;6913;340914;-82
2022/01/31 08:41:24;;;;;;;3.20;3.00;;;6.20;57.00;;;;;;20512;6913;118283;-83
2022/01/31 08:43:50;;;;;;;3.90;3.37;;;6.20;57.00;;;;;;20296;6913;299729;-83
2022/01/31 08:46:15;;;;;;;4.70;3.33;;;6.30;57.60;;;;;;20291;6913;315904;-81
2022/01/31 08:48:41;;;;;;;3.60;3.30;;;6.50;57.10;;;;;;20296;6913;281098;-82
2022/01/31 08:51:07;;;;;;;2.92;2.70;;;6.50;55.60;;;;;;20471;6913;118483;-82
2022/01/31 08:53:33;;;;;;;2.50;2.40;;;6.50;56.10;;;;;;20514;6913;118708;-83
2022/01/31 08:55:58;;;;;;;4.15;3.25;;;6.20;56.50;;;;;;20308;6913;311783;-82
2022/01/31 08:58:25;;;;;;;3.40;3.10;;;6.20;57.60;;;;;;20300;6913;311274;-82
2022/01/31 09:01:04;;;;;;;4.47;2.73;;;6.50;57.50;;;;;;20492;6913;118086;-82
2022/01/31 09:03:34;;;;;;;2.90;2.67;;;6.40;57.00;;;;;;20433;6913;120470;-82
2022/01/31 09:05:45;;;;;;;4.13;3.00;;;6.30;58.40;;;;;;20270;6913;309986;-82
2022/01/31 09:08:12;;;;;;;2.23;2.10;;;6.20;58.30;;;;;;20530;6913;118047;-83
2022/01/31 09:10:37;;;;;;;3.00;2.00;;;6.30;57.80;;;;;;20525;6913;117902;-83
2022/01/31 09:13:03;;;;;;;2.33;2.13;;;6.10;57.70;;;;;;20510;6913;117573;-82
2022/01/31 09:15:29;;;;;;;2.62;2.28;;;5.90;57.90;;;;;;20314;6913;304587;-81
2022/01/31 09:17:54;;;;;;;1.30;1.30;;;6.00;58.80;;;;;;20317;6911;341521;-83
2022/01/31 09:20:20;;;;;;;1.00;0.97;;;6.30;58.20;;;;;;20319;6912;343795;-83
2022/01/31 09:22:45;;;;;;;1.30;1.20;;;6.60;57.10;;;;;;20312;6912;280211;-82
2022/01/31 09:25:11;;;;;;;1.52;1.30;;;6.80;56.40;;;;;;20295;6912;310575;-83
2022/01/31 09:27:36;;;;;;;1.40;1.30;;;7.00;55.90;;;;;;20306;6912;296157;-86
2022/01/31 09:30:02;;;;;;;1.05;1.05;;;7.10;55.30;;;;;;20528;6913;118060;-83
2022/01/31 09:32:28;;;;;;;1.13;1.03;;;6.90;55.00;;;;;;20507;6913;118275;-83
2022/01/31 09:34:53;;;;;;;1.27;1.20;;;6.50;55.60;;;;;;20291;6913;314875;-83
2022/01/31 09:37:20;;;;;;;1.60;1.50;;;6.60;57.40;;;;;;20319;6913;340130;-83
2022/01/31 09:39:47;;;;;;;1.30;1.20;;;7.00;58.10;;;;;;20529;6913;118868;-85
2022/01/31 09:42:14;;;;;;;1.20;1.20;;;7.00;57.40;;;;;;20521;6913;120777;-84
2022/01/31 09:47:17;;;;;;;0.90;0.90;;;6.90;57.20;;;;;;20507;6913;127163;-85
2022/01/31 09:49:30;;;;;;;1.23;1.20;;;6.90;56.90;;;;;;20277;6913;310228;-86
2022/01/31 09:51:57;;;;;;;1.70;1.30;;;7.00;57.50;;;;;;20325;6913;336099;-83
2022/01/31 09:54:25;;;;;;;1.40;1.30;;;7.30;57.30;;;;;;20368;6913;309796;-83
2022/01/31 09:56:49;;;;;;;1.37;1.30;;;7.90;56.40;;;;;;20358;6913;304768;-84
2022/01/31 09:59:14;;;;;;;1.13;1.03;;;7.90;56.40;;;;;;20527;6913;117679;-87
2022/01/31 10:01:43;;;;;;;1.13;1.03;;;8.00;56.10;;;;;;20311;6913;318395;-85
2022/01/31 10:04:10;;;;;;;1.20;1.10;;;8.40;55.70;;;;;;20318;6913;318577;-85
2022/01/31 10:06:35;;;;;;;1.30;1.20;;;8.40;55.60;;;;;;20519;6913;119506;-85
2022/01/31 10:09:15;;;;;;;0.77;0.67;;;8.40;55.60;;;;;;20508;6913;118069;-84
2022/01/31 10:11:49;;;;;;;0.70;0.70;;;8.40;55.50;;;;;;20506;6913;117568;-84
2022/01/31 10:17:00;;;;;;;0.80;0.80;;;8.20;55.50;;;;;;20505;6913;147552;-84
2022/01/31 10:19:26;;;;;;;0.95;0.95;;;8.20;55.70;;;;;;20303;6913;280156;-84
2022/01/31 10:21:58;;;;;;;1.00;1.00;;;8.40;55.20;;;;;;20298;6913;305273;-84
2022/01/31 10:24:25;;;;;;;1.23;1.00;;;8.80;53.90;;;;;;20301;6913;311055;-84
2022/01/31 10:26:51;;;;;;;1.13;1.03;;;9.20;53.60;;;;;;20290;6913;281048;-84
2022/01/31 10:29:16;;;;;;;1.40;1.30;;;9.50;51.80;;;;;;20307;6910;282788;-85
2022/01/31 10:31:53;;;;;;;1.83;1.48;;;9.70;51.30;;;;;;20308;6912;310854;-85
2022/01/31 10:34:20;;;;;;;1.47;1.30;;;9.80;50.40;;;;;;20480;6912;117205;-85
2022/01/31 10:36:45;;;;;;;1.37;1.30;;;9.50;50.60;;;;;;20307;6912;304876;-85
2022/01/31 10:43:24;;;;;;;1.47;1.37;;;9.40;50.60;;;;;;20501;6912;118395;-84
2022/01/31 10:45:24;;;;;;;1.90;1.10;;;8.90;51.10;;;;;;20356;6913;117469;-84
2022/01/31 10:52:28;;;;;;;1.60;1.50;;;8.30;52.00;;;;;;20419;6972;68568;-84
2022/01/31 10:54:53;;;;;;;1.70;1.30;;;8.10;52.10;;;;;;20337;6913;302924;-83
2022/01/31 10:57:17;;;;;;;1.07;0.97;;;8.30;50.90;;;;;;20564;6913;116640;-84
2022/01/31 10:59:42;;;;;;;2.65;2.40;;;8.40;50.90;;;;;;20302;6913;309955;-84
2022/01/31 11:02:08;;;;;;;2.77;1.37;;;8.60;50.00;;;;;;20515;6913;117733;-84
2022/01/31 11:04:38;;;;;;;1.20;1.10;;;8.70;50.20;;;;;;20501;6913;124090;-85
2022/01/31 11:07:03;;;;;;;1.90;1.33;;;8.60;50.50;;;;;;20521;6913;119106;-83
2022/01/31 11:09:29;;;;;;;1.25;1.15;;;8.60;50.00;;;;;;20305;6913;280632;-84
2022/01/31 11:11:55;;;;;;;2.10;1.60;;;8.50;49.50;;;;;;20511;6913;118394;-84
2022/01/31 11:14:22;;;;;;;1.27;1.10;;;8.50;50.00;;;;;;20509;6913;118471;-83
2022/01/31 11:16:48;;;;;;;1.80;1.40;;;8.40;50.60;;;;;;20517;6913;118113;-84
2022/01/31 11:19:15;;;;;;;1.97;1.40;;;8.40;50.30;;;;;;20489;6913;117542;-84
2022/01/31 11:21:44;;;;;;;2.42;1.40;;;8.30;50.40;;;;;;20489;6913;117831;-84
2022/01/31 11:24:17;;;;;;;1.20;1.10;;;8.20;50.70;;;;;;20510;6913;119675;-85
2022/01/31 11:26:36;;;;;;;1.40;1.30;;;8.20;50.90;;;;;;20168;6913;319739;-84
2022/01/31 11:29:04;;;;;;;1.65;1.30;;;8.50;49.20;;;;;;20474;6913;117374;-85
2022/01/31 11:31:32;;;;;;;1.60;1.10;;;8.50;49.90;;;;;;20465;6913;117949;-84
2022/01/31 11:33:58;;;;;;;1.50;1.13;;;8.40;49.30;;;;;;20248;6913;322054;-85
2022/01/31 11:36:23;;;;;;;1.37;1.07;;;8.50;48.30;;;;;;20532;6913;67936;-84
2022/01/31 11:38:48;;;;;;;1.47;0.87;;;8.60;48.60;;;;;;20508;6913;117738;-87
2022/01/31 11:41:16;;;;;;;1.65;1.27;;;8.60;47.50;;;;;;20291;6911;340788;-86
2022/01/31 11:43:44;;;;;;;2.20;1.30;;;8.60;48.20;;;;;;20525;6912;117696;-86
2022/01/31 11:46:10;;;;;;;3.13;1.33;;;8.60;47.60;;;;;;20510;6912;120443;-86
2022/01/31 11:48:38;;;;;;;2.15;0.98;;;8.50;48.10;;;;;;20506;6912;119050;-86
2022/01/31 11:51:02;;;;;;;1.43;0.80;;;8.20;49.80;;;;;;20490;6912;123335;-84
2022/01/31 11:53:33;;;;;;;3.13;1.10;;;8.20;49.10;;;;;;20305;6913;310661;-84
2022/01/31 11:55:59;;;;;;;2.17;1.08;;;8.30;47.40;;;;;;20300;6913;310446;-84
2022/01/31 11:58:25;;;;;;;1.97;1.20;;;8.60;46.10;;;;;;20352;6913;117299;-84
2022/01/31 12:00:50;;;;;;;3.57;1.20;;;8.60;46.40;;;;;;20287;6913;344240;-85
2022/01/31 12:03:16;;;;;;;2.23;1.30;;;8.60;46.10;;;;;;20381;6913;117806;-84
2022/01/31 12:05:43;;;;;;;2.22;1.15;;;8.50;46.40;;;;;;20297;6913;326424;-84
2022/01/31 12:08:18;;;;;;;3.62;1.30;;;8.60;45.50;;;;;;20461;6916;117286;-84
2022/01/31 12:10:44;;;;;;;1.73;1.07;;;8.50;46.10;;;;;;20289;6913;311069;-84
2022/01/31 12:13:46;;;;;;;2.35;1.27;;;8.50;46.20;;;;;;20430;6913;117665;-85
2022/01/31 12:16:24;;;;;;;1.03;0.90;;;8.40;46.40;;;;;;20527;6913;121003;-84
2022/01/31 12:18:58;;;;;;;1.80;1.10;;;8.10;47.40;;;;;;20308;6913;280906;-85
2022/01/31 12:24:09;;;;;;;2.13;0.93;;;8.20;46.30;;;;;;20342;6913;309839;-85
2022/01/31 12:26:35;;;;;;;1.87;0.87;;;8.30;46.00;;;;;;20535;6913;117011;-84
2022/01/31 12:29:00;;;;;;;1.30;0.95;;;8.30;46.30;;;;;;20510;6913;117598;-85
2022/01/31 12:31:41;;;;;;;3.78;1.80;;;8.10;46.90;;;;;;20492;6913;118051;-86
2022/01/31 12:34:08;;;;;;;2.57;1.60;;;7.80;47.40;;;;;;20525;6913;120650;-85
2022/01/31 12:36:33;;;;;;;2.40;1.37;;;7.70;48.00;;;;;;20138;6913;310515;-84
2022/01/31 12:39:00;;;;;;;1.90;1.17;;;8.10;45.80;;;;;;20308;6913;310300;-87
2022/01/31 12:41:32;;;;;;;1.73;0.87;;;8.10;45.90;;;;;;20503;6913;117534;-85
2022/01/31 12:44:38;;;;;;;2.43;1.50;;;8.10;46.40;;;;;;20531;6913;117319;-85
2022/01/31 12:47:06;;;;;;;2.17;1.00;;;7.90;46.80;;;;;;20508;6913;118427;-84
2022/01/31 12:49:31;;;;;;;1.40;1.00;;;7.60;47.40;;;;;;20531;6913;118313;-87
2022/01/31 12:51:57;;;;;;;1.20;1.10;;;7.50;47.90;;;;;;20281;6911;309567;-84
2022/01/31 12:54:22;;;;;;;2.55;2.00;;;7.70;47.00;;;;;;20302;6912;310742;-84
2022/01/31 12:56:48;;;;;;;2.20;1.07;;;8.00;46.50;;;;;;20541;6912;116521;-84
2022/01/31 12:59:17;;;;;;;1.73;1.37;;;8.10;46.60;;;;;;20522;6912;120116;-85
2022/01/31 13:01:50;;;;;;;2.33;1.60;;;7.90;47.30;;;;;;20318;6912;340043;-84